createdAt,value
2022-10-30T00:00:09.614Z,100557.75
2022-10-30T00:02:39.317Z,100543.94
2022-10-30T00:05:07.267Z,100554.03
2022-10-30T00:07:34.594Z,100542.25
2022-10-30T00:10:01.960Z,100540.84
2022-10-30T00:12:29.533Z,100550.53
2022-10-30T00:14:56.848Z,100553.25
2022-10-30T00:17:24.191Z,100553.69
2022-10-30T00:19:51.781Z,100552.25
2022-10-30T00:22:19.220Z,100539.63
2022-10-30T00:24:46.580Z,100542.41
2022-10-30T00:27:14.171Z,100539.06
2022-10-30T00:29:41.884Z,100547.09
2022-10-30T00:32:09.234Z,100544.12
2022-10-30T00:34:36.919Z,100538.78
2022-10-30T00:37:05.187Z,100533.09
2022-10-30T00:39:32.543Z,100528.81
2022-10-30T00:42:00.105Z,100523.94
2022-10-30T00:44:37.499Z,100521.59
2022-10-30T00:47:07.258Z,100528.87
2022-10-30T00:49:37.077Z,100521.50
2022-10-30T00:52:05.894Z,100519.31
2022-10-30T00:54:33.251Z,100516.38
2022-10-30T00:57:01.222Z,100526.47
2022-10-30T00:59:30.621Z,100518.19
2022-10-30T01:01:58.160Z,100524.34
2022-10-30T01:04:29.109Z,100525.84
2022-10-30T01:06:58.015Z,100520.78
2022-10-30T01:09:25.490Z,100526.34
2022-10-30T01:11:52.843Z,100523.44
2022-10-30T01:14:20.460Z,100525.94
2022-10-30T01:17:17.315Z,100513.72
2022-10-30T01:19:53.324Z,100515.37
2022-10-30T01:22:38.901Z,100510.72
2022-10-30T01:25:12.512Z,100499.59
2022-10-30T01:27:55.992Z,100507.53
2022-10-30T01:30:48.511Z,100500.47
2022-10-30T01:33:36.634Z,100496.47
2022-10-30T01:36:36.191Z,100484.66
2022-10-30T01:39:08.067Z,100487.16
2022-10-30T01:41:35.765Z,100478.16
2022-10-30T01:44:05.590Z,100474.78
2022-10-30T01:46:49.937Z,100479.38
2022-10-30T01:49:40.964Z,100478.63
2022-10-30T01:52:19.159Z,100486.78
2022-10-30T01:54:58.492Z,100482.53
2022-10-30T01:57:34.711Z,100493.94
2022-10-30T02:00:13.111Z,100503.00
2022-10-30T02:02:41.254Z,100501.41
2022-10-30T02:05:09.739Z,100487.59
2022-10-30T02:07:37.093Z,100492.84
2022-10-30T02:10:07.033Z,100495.88
2022-10-30T02:12:34.658Z,100494.81
2022-10-30T02:15:02.042Z,100508.56
2022-10-30T02:17:29.470Z,100499.91
2022-10-30T02:19:57.110Z,100498.75
2022-10-30T02:22:25.000Z,100497.87
2022-10-30T02:24:52.765Z,100500.75
2022-10-30T02:27:20.582Z,100482.84
2022-10-30T02:29:49.285Z,100487.97
2022-10-30T02:32:16.645Z,100496.59
2022-10-30T02:34:44.699Z,100496.12
2022-10-30T02:37:12.081Z,100491.25
2022-10-30T02:39:39.654Z,100498.78
2022-10-30T02:42:07.482Z,100496.41
2022-10-30T02:44:34.832Z,100497.13
2022-10-30T02:47:02.150Z,100496.44
2022-10-30T02:49:29.853Z,100485.19
2022-10-30T02:51:57.180Z,100478.31
2022-10-30T02:54:24.570Z,100481.34
2022-10-30T02:56:52.329Z,100479.97
2022-10-30T02:59:21.527Z,100476.50
2022-10-30T03:01:49.194Z,100488.69
2022-10-30T03:04:16.939Z,100494.53
2022-10-30T03:06:44.321Z,100498.00
2022-10-30T03:09:11.700Z,100494.75
2022-10-30T03:11:39.290Z,100499.75
2022-10-30T03:14:06.651Z,100503.06
2022-10-30T03:16:34.040Z,100490.25
2022-10-30T03:19:01.705Z,100493.66
2022-10-30T03:21:29.164Z,100492.97
2022-10-30T03:23:56.510Z,100505.31
2022-10-30T03:26:24.180Z,100499.88
2022-10-30T03:28:51.586Z,100492.41
2022-10-30T03:31:19.750Z,100489.69
2022-10-30T03:33:47.581Z,100480.78
2022-10-30T03:36:15.690Z,100480.69
2022-10-30T03:38:43.041Z,100484.50
2022-10-30T03:41:11.012Z,100479.06
2022-10-30T03:43:38.368Z,100478.22
2022-10-30T03:46:05.783Z,100492.25
2022-10-30T03:48:33.733Z,100491.13
2022-10-30T03:51:01.119Z,100489.47
2022-10-30T03:53:28.815Z,100486.19
2022-10-30T03:56:00.729Z,100484.69
2022-10-30T03:58:28.798Z,100471.66
2022-10-30T04:01:06.343Z,100469.50
2022-10-30T04:03:34.536Z,100481.31
2022-10-30T04:06:01.898Z,100479.03
2022-10-30T04:08:29.333Z,100473.78
2022-10-30T04:10:57.654Z,100466.56
2022-10-30T04:13:25.063Z,100474.72
2022-10-30T04:15:56.266Z,100467.28
2022-10-30T04:18:25.682Z,100474.72
2022-10-30T04:20:53.725Z,100473.59
2022-10-30T04:23:21.402Z,100474.56
2022-10-30T04:25:49.099Z,100477.16
2022-10-30T04:28:16.676Z,100480.41
2022-10-30T04:30:45.800Z,100486.59
2022-10-30T04:33:14.156Z,100476.47
2022-10-30T04:35:41.689Z,100478.47
2022-10-30T04:38:11.103Z,100483.56
2022-10-30T04:40:40.832Z,100478.44
2022-10-30T04:43:08.412Z,100476.63
2022-10-30T04:45:36.270Z,100480.22
2022-10-30T04:48:11.219Z,100480.53
2022-10-30T04:50:39.006Z,100472.97
2022-10-30T04:53:17.139Z,100474.25
2022-10-30T04:55:44.882Z,100470.91
2022-10-30T04:58:12.851Z,100473.44
2022-10-30T05:00:40.324Z,100473.06
2022-10-30T05:03:09.456Z,100475.94
2022-10-30T05:05:37.272Z,100474.94
2022-10-30T05:08:04.792Z,100474.13
2022-10-30T05:10:32.152Z,100475.44
2022-10-30T05:13:00.138Z,100467.37
2022-10-30T05:15:27.570Z,100474.47
2022-10-30T05:17:55.103Z,100480.44
2022-10-30T05:20:22.894Z,100477.97
2022-10-30T05:22:57.129Z,100478.31
2022-10-30T05:25:25.092Z,100490.44
2022-10-30T05:28:01.048Z,100494.81
2022-10-30T05:30:30.703Z,100503.69
2022-10-30T05:33:05.644Z,100500.94
2022-10-30T05:35:33.948Z,100500.53
2022-10-30T05:38:01.817Z,100496.31
2022-10-30T05:40:30.060Z,100510.88
2022-10-30T05:42:58.671Z,100513.72
2022-10-30T05:45:26.488Z,100520.31
2022-10-30T05:47:58.998Z,100528.72
2022-10-30T05:50:27.955Z,100528.84
2022-10-30T05:52:57.153Z,100530.38
2022-10-30T05:55:24.681Z,100516.31
2022-10-30T05:57:57.780Z,100514.50
2022-10-30T06:00:25.915Z,100502.75
2022-10-30T06:02:58.787Z,100513.34
2022-10-30T06:05:26.573Z,100517.72
2022-10-30T06:07:57.397Z,100514.44
2022-10-30T06:10:24.910Z,100508.44
2022-10-30T06:13:02.586Z,100510.69
2022-10-30T06:15:30.422Z,100507.87
2022-10-30T06:17:58.457Z,100502.03
2022-10-30T06:20:29.257Z,100509.59
2022-10-30T06:23:04.708Z,100497.78
2022-10-30T06:25:40.352Z,100506.41
2022-10-30T06:28:10.563Z,100516.47
2022-10-30T06:30:38.371Z,100516.69
2022-10-30T06:33:06.670Z,100514.53
2022-10-30T06:35:34.441Z,100521.22
2022-10-30T06:38:02.097Z,100514.69
2022-10-30T06:40:30.223Z,100514.25
2022-10-30T06:42:58.602Z,100512.88
2022-10-30T06:45:26.878Z,100513.03
2022-10-30T06:47:54.293Z,100521.94
2022-10-30T06:50:22.111Z,100526.81
2022-10-30T06:52:50.284Z,100525.69
2022-10-30T06:55:18.001Z,100529.19
2022-10-30T06:57:45.644Z,100528.91
2022-10-30T07:00:13.645Z,100525.41
2022-10-30T07:02:41.237Z,100525.84
2022-10-30T07:05:09.588Z,100528.53
2022-10-30T07:07:37.335Z,100525.78
2022-10-30T07:10:06.531Z,100529.66
2022-10-30T07:12:36.402Z,100524.56
2022-10-30T07:15:06.570Z,100524.25
2022-10-30T07:17:34.798Z,100519.47
2022-10-30T07:20:02.494Z,100518.16
2022-10-30T07:22:30.308Z,100518.00
2022-10-30T07:24:57.917Z,100517.59
2022-10-30T07:27:25.672Z,100513.19
2022-10-30T07:29:54.041Z,100517.00
2022-10-30T07:32:21.434Z,100524.84
2022-10-30T07:34:49.391Z,100526.91
2022-10-30T07:37:18.631Z,100524.59
2022-10-30T07:39:46.018Z,100528.25
2022-10-30T07:42:14.353Z,100526.56
2022-10-30T07:44:43.260Z,100527.09
2022-10-30T07:47:10.832Z,100538.22
2022-10-30T07:49:39.249Z,100544.72
2022-10-30T07:52:06.939Z,100545.94
2022-10-30T07:54:34.352Z,100529.59
2022-10-30T07:57:03.941Z,100527.12
2022-10-30T07:59:34.217Z,100523.84
2022-10-30T08:02:02.300Z,100543.47
2022-10-30T08:04:31.032Z,100537.06
2022-10-30T08:06:58.576Z,100543.72
2022-10-30T08:09:26.015Z,100542.37
2022-10-30T08:11:53.852Z,100542.63
2022-10-30T08:14:21.173Z,100541.47
2022-10-30T08:16:48.539Z,100541.63
2022-10-30T08:19:16.249Z,100544.66
2022-10-30T08:21:43.587Z,100540.72
2022-10-30T08:24:11.251Z,100548.13
2022-10-30T08:26:39.303Z,100544.59
2022-10-30T08:29:06.959Z,100544.91
2022-10-30T08:31:34.289Z,100535.59
2022-10-30T08:34:06.615Z,100542.50
2022-10-30T08:36:34.922Z,100539.16
2022-10-30T08:39:04.035Z,100543.69
2022-10-30T08:41:33.798Z,100538.59
2022-10-30T08:44:01.283Z,100541.34
2022-10-30T08:46:31.033Z,100538.47
2022-10-30T08:48:58.555Z,100549.69
2022-10-30T08:51:25.948Z,100549.59
2022-10-30T08:53:53.664Z,100540.53
2022-10-30T08:56:21.193Z,100532.59
2022-10-30T08:58:51.146Z,100530.81
2022-10-30T09:01:21.836Z,100527.22
2022-10-30T09:03:54.358Z,100531.50
2022-10-30T09:06:24.518Z,100527.31
2022-10-30T09:08:53.574Z,100526.81
2022-10-30T09:11:21.506Z,100522.53
2022-10-30T09:13:49.117Z,100514.22
2022-10-30T09:16:17.260Z,100530.06
2022-10-30T09:18:44.662Z,100533.19
2022-10-30T09:21:12.359Z,100538.03
2022-10-30T09:23:39.716Z,100542.56
2022-10-30T09:26:08.141Z,100534.59
2022-10-30T09:28:36.837Z,100531.69
2022-10-30T09:31:06.815Z,100526.38
2022-10-30T09:33:35.231Z,100526.72
2022-10-30T09:36:05.081Z,100523.16
2022-10-30T09:38:32.478Z,100528.37
2022-10-30T09:41:11.884Z,100529.50
2022-10-30T09:43:58.264Z,100530.44
2022-10-30T09:47:03.593Z,100525.34
2022-10-30T09:49:50.125Z,100525.09
2022-10-30T09:52:34.917Z,100508.78
2022-10-30T09:55:17.917Z,100506.28
2022-10-30T09:58:18.923Z,100506.25
2022-10-30T10:00:51.094Z,100502.06
2022-10-30T10:03:48.085Z,100502.81
2022-10-30T10:06:18.891Z,100500.94
2022-10-30T10:09:08.176Z,100503.81
2022-10-30T10:11:37.495Z,100501.81
2022-10-30T10:14:17.077Z,100502.31
2022-10-30T10:16:45.556Z,100501.81
2022-10-30T10:19:23.367Z,100493.28
2022-10-30T10:21:58.025Z,100498.53
2022-10-30T10:24:30.687Z,100493.16
2022-10-30T10:27:13.111Z,100489.69
2022-10-30T10:29:58.800Z,100493.16
2022-10-30T10:32:35.220Z,100489.75
2022-10-30T10:35:30.230Z,100488.44
2022-10-30T10:38:08.442Z,100486.97
2022-10-30T10:40:48.027Z,100484.94
2022-10-30T10:43:53.339Z,100478.53
2022-10-30T10:46:26.783Z,100476.66
2022-10-30T10:49:12.636Z,100487.84
2022-10-30T10:51:47.814Z,100479.16
2022-10-30T10:55:00.889Z,100481.81
2022-10-30T10:57:38.466Z,100480.56
2022-10-30T11:00:15.902Z,100486.09
2022-10-30T11:02:51.907Z,100483.84
2022-10-30T11:05:36.273Z,100484.25
2022-10-30T11:08:11.409Z,100475.72
2022-10-30T11:10:38.786Z,100471.84
2022-10-30T11:13:07.274Z,100465.81
2022-10-30T11:15:40.008Z,100451.00
2022-10-30T11:18:10.795Z,100452.44
2022-10-30T11:20:59.672Z,100450.59
2022-10-30T11:23:41.149Z,100447.53
2022-10-30T11:26:17.116Z,100451.84
2022-10-30T11:28:55.159Z,100459.59
2022-10-30T11:31:38.127Z,100455.56
2022-10-30T11:34:17.889Z,100455.91
2022-10-30T11:36:48.971Z,100453.00
2022-10-30T11:39:34.028Z,100451.84
2022-10-30T11:42:21.548Z,100447.06
2022-10-30T11:44:52.005Z,100455.62
2022-10-30T11:47:21.785Z,100453.75
2022-10-30T11:49:51.892Z,100447.66
2022-10-30T11:52:21.367Z,100449.53
2022-10-30T11:54:57.412Z,100440.25
2022-10-30T11:57:31.044Z,100437.78
2022-10-30T12:00:04.603Z,100441.59
2022-10-30T12:02:43.311Z,100441.47
2022-10-30T12:05:26.081Z,100448.03
2022-10-30T12:08:17.348Z,100450.66
2022-10-30T12:10:56.413Z,100441.69
2022-10-30T12:13:24.260Z,100445.72
2022-10-30T12:16:04.706Z,100436.53
2022-10-30T12:18:32.041Z,100429.28
2022-10-30T12:20:59.664Z,100426.87
2022-10-30T12:23:28.000Z,100420.41
2022-10-30T12:25:57.833Z,100417.59
2022-10-30T12:28:27.026Z,100423.37
2022-10-30T12:31:10.535Z,100423.47
2022-10-30T12:33:50.336Z,100428.62
2022-10-30T12:36:20.279Z,100431.22
2022-10-30T12:38:52.745Z,100431.38
2022-10-30T12:41:29.363Z,100426.03
2022-10-30T12:43:59.886Z,100430.88
2022-10-30T12:46:43.948Z,100426.87
2022-10-30T12:49:25.520Z,100428.97
2022-10-30T12:51:56.373Z,100433.97
2022-10-30T12:54:36.179Z,100426.44
2022-10-30T12:57:10.814Z,100429.41
2022-10-30T12:59:56.641Z,100442.47
2022-10-30T13:02:42.590Z,100449.00
2022-10-30T13:05:21.479Z,100440.69
2022-10-30T13:07:51.999Z,100434.81
2022-10-30T13:10:28.999Z,100432.56
2022-10-30T13:13:02.008Z,100422.31
2022-10-30T13:15:33.158Z,100428.75
2022-10-30T13:18:00.917Z,100427.78
2022-10-30T13:20:28.983Z,100429.72
2022-10-30T13:23:04.346Z,100437.84
2022-10-30T13:25:39.376Z,100439.97
2022-10-30T13:28:31.391Z,100430.50
2022-10-30T13:31:10.500Z,100436.78
2022-10-30T13:33:42.779Z,100440.75
2022-10-30T13:36:37.679Z,100434.81
2022-10-30T13:39:39.511Z,100436.19
2022-10-30T13:42:12.485Z,100443.00
2022-10-30T13:44:58.184Z,100437.81
2022-10-30T13:47:46.218Z,100441.41
2022-10-30T13:50:25.883Z,100440.00
2022-10-30T13:52:55.349Z,100434.94
2022-10-30T13:55:30.366Z,100444.75
2022-10-30T13:58:12.745Z,100429.94
2022-10-30T14:01:05.646Z,100434.31
2022-10-30T14:03:58.392Z,100420.28
2022-10-30T14:06:36.200Z,100424.13
2022-10-30T14:09:10.815Z,100418.12
2022-10-30T14:11:38.128Z,100420.41
2022-10-30T14:14:24.269Z,100422.63
2022-10-30T14:17:04.356Z,100427.94
2022-10-30T14:19:31.965Z,100440.09
2022-10-30T14:21:59.922Z,100435.34
2022-10-30T14:24:36.323Z,100443.38
2022-10-30T14:27:03.717Z,100437.75
2022-10-30T14:29:34.039Z,100440.37
2022-10-30T14:32:01.673Z,100454.03
2022-10-30T14:34:45.807Z,100448.75
2022-10-30T14:37:13.325Z,100447.78
2022-10-30T14:39:47.280Z,100450.13
2022-10-30T14:42:44.258Z,100435.06
2022-10-30T14:45:26.187Z,100436.16
2022-10-30T14:48:12.489Z,100446.34
2022-10-30T14:51:05.836Z,100443.28
2022-10-30T14:53:54.998Z,100441.97
2022-10-30T14:56:47.604Z,100442.06
2022-10-30T14:59:14.806Z,100425.47
2022-10-30T15:01:53.929Z,100418.66
2022-10-30T15:04:28.074Z,100428.69
2022-10-30T15:07:08.710Z,100411.62
2022-10-30T15:09:51.304Z,100402.78
2022-10-30T15:12:40.337Z,100393.13
2022-10-30T15:15:15.156Z,100408.44
2022-10-30T15:17:53.849Z,100408.59
2022-10-30T15:20:25.809Z,100408.84
2022-10-30T15:23:01.099Z,100413.22
2022-10-30T15:25:36.252Z,100405.75
2022-10-30T15:28:03.880Z,100405.59
2022-10-30T15:30:31.220Z,100407.72
2022-10-30T15:32:58.832Z,100402.28
2022-10-30T15:35:27.922Z,100399.84
2022-10-30T15:38:08.138Z,100393.31
2022-10-30T15:40:36.733Z,100407.75
2022-10-30T15:43:05.867Z,100413.75
2022-10-30T15:45:37.444Z,100412.16
2022-10-30T15:48:29.108Z,100413.25
2022-10-30T15:51:07.279Z,100411.09
2022-10-30T15:53:44.575Z,100424.69
2022-10-30T15:56:44.387Z,100416.44
2022-10-30T15:59:31.464Z,100416.44
2022-10-30T16:01:58.908Z,100413.47
2022-10-30T16:04:31.333Z,100415.78
2022-10-30T16:07:04.436Z,100419.22
2022-10-30T16:09:32.087Z,100421.94
2022-10-30T16:11:59.713Z,100433.97
2022-10-30T16:14:32.604Z,100422.12
2022-10-30T16:17:00.205Z,100429.94
2022-10-30T16:19:29.408Z,100428.06
2022-10-30T16:21:57.287Z,100431.94
2022-10-30T16:24:33.043Z,100418.75
2022-10-30T16:27:04.815Z,100417.34
2022-10-30T16:29:32.428Z,100419.25
2022-10-30T16:31:59.796Z,100413.63
2022-10-30T16:34:31.927Z,100419.06
2022-10-30T16:36:59.713Z,100417.91
2022-10-30T16:39:27.172Z,100418.75
2022-10-30T16:41:58.835Z,100417.88
2022-10-30T16:44:30.372Z,100430.81
2022-10-30T16:47:14.300Z,100432.16
2022-10-30T16:49:46.987Z,100435.03
2022-10-30T16:52:17.149Z,100433.72
2022-10-30T16:54:49.099Z,100440.13
2022-10-30T16:57:21.130Z,100433.56
2022-10-30T16:59:49.553Z,100431.13
2022-10-30T17:02:21.592Z,100433.03
2022-10-30T17:04:55.345Z,100429.38
2022-10-30T17:07:25.940Z,100440.00
2022-10-30T17:09:55.620Z,100433.87
2022-10-30T17:12:23.720Z,100435.09
2022-10-30T17:15:05.949Z,100440.13
2022-10-30T17:17:35.351Z,100434.34
2022-10-30T17:20:29.879Z,100430.28
2022-10-30T17:23:07.434Z,100436.09
2022-10-30T17:25:38.324Z,100437.94
2022-10-30T17:28:05.989Z,100443.31
2022-10-30T17:30:41.324Z,100439.44
2022-10-30T17:33:35.418Z,100443.94
2022-10-30T17:36:06.047Z,100451.84
2022-10-30T17:38:33.657Z,100455.09
2022-10-30T17:41:01.268Z,100457.78
2022-10-30T17:43:30.472Z,100444.47
2022-10-30T17:45:58.241Z,100446.13
2022-10-30T17:48:29.463Z,100449.81
2022-10-30T17:50:56.786Z,100444.28
2022-10-30T17:53:25.347Z,100450.09
2022-10-30T17:56:03.924Z,100463.06
2022-10-30T17:58:31.841Z,100457.50
2022-10-30T18:00:59.381Z,100462.97
2022-10-30T18:03:27.066Z,100466.84
2022-10-30T18:05:54.491Z,100476.41
2022-10-30T18:08:21.888Z,100470.81
2022-10-30T18:10:49.500Z,100478.53
2022-10-30T18:13:16.827Z,100469.66
2022-10-30T18:15:44.970Z,100462.06
2022-10-30T18:18:12.590Z,100457.81
2022-10-30T18:20:39.960Z,100450.13
2022-10-30T18:23:46.743Z,100446.00
2022-10-30T18:26:17.712Z,100447.81
2022-10-30T18:28:45.630Z,100443.50
2022-10-30T18:31:13.826Z,100449.56
2022-10-30T18:33:41.590Z,100439.59
2022-10-30T18:36:22.367Z,100443.06
2022-10-30T18:38:50.092Z,100440.13
2022-10-30T18:41:44.377Z,100446.97
2022-10-30T18:44:15.901Z,100439.44
2022-10-30T18:46:43.270Z,100453.78
2022-10-30T18:49:10.715Z,100439.59
2022-10-30T18:51:38.494Z,100443.47
2022-10-30T18:54:11.805Z,100451.50
2022-10-30T18:56:39.428Z,100445.47
2022-10-30T18:59:06.746Z,100443.53
2022-10-30T19:01:34.305Z,100440.25
2022-10-30T19:04:03.725Z,100443.81
2022-10-30T19:06:32.874Z,100433.97
2022-10-30T19:09:00.246Z,100440.37
2022-10-30T19:11:30.797Z,100467.00
2022-10-30T19:13:58.935Z,100465.66
2022-10-30T19:16:26.329Z,100463.06
2022-10-30T19:18:54.118Z,100458.09
2022-10-30T19:21:22.933Z,100462.66
2022-10-30T19:23:50.337Z,100464.28
2022-10-30T19:26:18.013Z,100459.97
2022-10-30T19:28:45.614Z,100463.81
2022-10-30T19:31:13.735Z,100453.38
2022-10-30T19:33:41.346Z,100455.19
2022-10-30T19:36:26.968Z,100450.06
2022-10-30T19:38:54.591Z,100451.59
2022-10-30T19:41:22.033Z,100452.03
2022-10-30T19:43:49.379Z,100448.41
2022-10-30T19:46:16.981Z,100448.88
2022-10-30T19:49:00.367Z,100441.25
2022-10-30T19:51:28.620Z,100445.22
2022-10-30T19:53:56.142Z,100454.53
2022-10-30T19:56:23.530Z,100445.34
2022-10-30T19:58:51.159Z,100441.91
2022-10-30T20:01:18.656Z,100446.66
2022-10-30T20:03:46.336Z,100451.75
2022-10-30T20:06:13.693Z,100449.22
2022-10-30T20:08:41.017Z,100447.03
2022-10-30T20:11:08.643Z,100451.88
2022-10-30T20:13:37.223Z,100460.19
2022-10-30T20:16:05.608Z,100450.22
2022-10-30T20:18:35.091Z,100444.66
2022-10-30T20:21:04.594Z,100459.41
2022-10-30T20:23:31.973Z,100451.03
2022-10-30T20:26:24.124Z,100454.81
2022-10-30T20:28:51.761Z,100456.53
2022-10-30T20:31:19.360Z,100458.38
2022-10-30T20:33:46.672Z,100455.13
2022-10-30T20:36:14.132Z,100455.03
2022-10-30T20:38:41.796Z,100452.97
2022-10-30T20:41:22.393Z,100453.00
2022-10-30T20:43:50.552Z,100447.47
2022-10-30T20:46:19.236Z,100453.94
2022-10-30T20:48:46.675Z,100467.53
2022-10-30T20:51:14.418Z,100458.13
2022-10-30T20:53:41.743Z,100466.31
2022-10-30T20:56:09.072Z,100451.09
2022-10-30T20:58:36.677Z,100447.97
2022-10-30T21:01:04.058Z,100449.75
2022-10-30T21:03:31.460Z,100448.72
2022-10-30T21:06:00.112Z,100444.19
2022-10-30T21:08:28.214Z,100454.03
2022-10-30T21:10:59.840Z,100449.00
2022-10-30T21:13:28.194Z,100446.50
2022-10-30T21:15:59.408Z,100441.50
2022-10-30T21:18:27.009Z,100449.03
2022-10-30T21:20:54.334Z,100444.34
2022-10-30T21:23:21.658Z,100451.00
2022-10-30T21:25:49.258Z,100449.31
2022-10-30T21:28:16.584Z,100456.19
2022-10-30T21:30:43.892Z,100458.88
2022-10-30T21:33:11.463Z,100452.44
2022-10-30T21:35:38.776Z,100464.16
2022-10-30T21:38:06.096Z,100458.97
2022-10-30T21:40:33.685Z,100467.94
2022-10-30T21:43:04.135Z,100456.09
2022-10-30T21:45:32.064Z,100449.72
2022-10-30T21:47:59.648Z,100456.09
2022-10-30T21:50:26.972Z,100450.97
2022-10-30T21:52:54.319Z,100451.72
2022-10-30T21:55:21.896Z,100447.75
2022-10-30T21:57:49.262Z,100457.03
2022-10-30T22:00:16.790Z,100459.62
2022-10-30T22:02:44.380Z,100448.44
2022-10-30T22:05:11.705Z,100451.66
2022-10-30T22:07:39.019Z,100450.00
2022-10-30T22:10:07.280Z,100449.75
2022-10-30T22:12:34.608Z,100444.47
2022-10-30T22:15:01.950Z,100433.09
2022-10-30T22:17:32.324Z,100434.50
2022-10-30T22:20:02.195Z,100432.63
2022-10-30T22:22:29.797Z,100448.66
2022-10-30T22:24:57.112Z,100447.47
2022-10-30T22:27:24.437Z,100455.25
2022-10-30T22:29:52.003Z,100459.88
2022-10-30T22:32:19.319Z,100453.44
2022-10-30T22:34:46.657Z,100466.25
2022-10-30T22:37:14.251Z,100444.56
2022-10-30T22:39:41.582Z,100449.41
2022-10-30T22:42:08.888Z,100462.38
2022-10-30T22:44:36.482Z,100452.84
2022-10-30T22:47:03.808Z,100458.97
2022-10-30T22:49:31.123Z,100461.94
2022-10-30T22:51:58.710Z,100453.72
2022-10-30T22:54:26.139Z,100453.41
2022-10-30T22:56:54.923Z,100449.06
2022-10-30T22:59:22.561Z,100445.84
2022-10-30T23:01:49.986Z,100441.13
2022-10-30T23:04:17.455Z,100446.09
2022-10-30T23:06:45.079Z,100458.06
2022-10-30T23:09:17.130Z,100460.63
2022-10-30T23:11:44.979Z,100470.72
2022-10-30T23:14:12.368Z,100463.38
2022-10-30T23:16:39.750Z,100467.84
2022-10-30T23:19:07.528Z,100466.00
2022-10-30T23:21:34.855Z,100452.34
2022-10-30T23:24:02.922Z,100454.63
2022-10-30T23:26:31.896Z,100455.25
2022-10-30T23:28:59.595Z,100439.03
2022-10-30T23:31:28.591Z,100449.19
2022-10-30T23:33:57.911Z,100453.87
2022-10-30T23:36:25.403Z,100460.28
2022-10-30T23:38:55.694Z,100453.22
2022-10-30T23:41:24.284Z,100437.84
2022-10-30T23:43:58.416Z,100437.66
2022-10-30T23:46:26.184Z,100440.31
2022-10-30T23:48:53.667Z,100447.81
2022-10-30T23:51:21.188Z,100450.16
2022-10-30T23:53:48.812Z,100447.72
2022-10-30T23:56:16.214Z,100445.12
2022-10-30T23:58:47.222Z,100438.41
